Time;durP1;ratioP1;P1;durP2;ratioP2;P2;SDS_P1;SDS_P2;PMS_P1;PMS_P2;Temp;Humidity;BMP_temperature;BMP_pressure;BME280_temperature;BME280_humidity;BME280_pressure;Samples;Min_cycle;Max_cycle;Signal;HPM_P1;HPM_P2
2022/04/23 00:01:46;;;;;;;46.70;40.20;;;10.00;99.90;;;;;;4962817;28;20053;-77
2022/04/23 00:04:13;;;;;;;48.60;40.35;;;10.00;99.90;;;;;;4964367;28;20401;-75
2022/04/23 00:06:43;;;;;;;51.78;40.72;;;10.10;99.90;;;;;;4948573;28;20051;-76
2022/04/23 00:09:09;;;;;;;47.70;41.08;;;10.10;99.90;;;;;;4948183;28;20078;-76
2022/04/23 00:11:36;;;;;;;49.35;40.50;;;10.10;99.90;;;;;;4950394;28;20039;-76
2022/04/23 00:14:04;;;;;;;46.60;40.42;;;10.00;99.90;;;;;;4962391;28;20050;-76
2022/04/23 00:16:31;;;;;;;48.78;40.58;;;10.00;99.90;;;;;;4947368;28;20054;-76
2022/04/23 00:18:59;;;;;;;45.83;39.70;;;10.10;99.90;;;;;;4980640;28;20046;-76
2022/04/23 00:21:28;;;;;;;45.80;40.33;;;10.10;99.90;;;;;;4964183;28;20065;-75
2022/04/23 00:23:54;;;;;;;44.63;38.50;;;10.10;99.90;;;;;;4945408;28;20047;-75
2022/04/23 00:26:21;;;;;;;43.88;39.10;;;10.10;99.90;;;;;;4964015;28;20549;-75
2022/04/23 00:28:49;;;;;;;47.53;40.28;;;10.10;99.90;;;;;;4963336;28;20280;-76
2022/04/23 00:31:15;;;;;;;44.90;40.03;;;10.10;99.90;;;;;;4962850;28;20142;-76
2022/04/23 00:33:42;;;;;;;45.70;40.58;;;10.10;99.90;;;;;;4955472;28;20082;-76
2022/04/23 00:36:10;;;;;;;43.78;39.08;;;10.10;99.90;;;;;;4947222;28;20134;-76
2022/04/23 00:38:40;;;;;;;45.10;39.63;;;10.10;99.90;;;;;;4963883;28;20859;-76
2022/04/23 00:41:08;;;;;;;44.05;39.30;;;10.10;99.90;;;;;;4955936;28;20141;-75
2022/04/23 00:43:35;;;;;;;45.25;39.92;;;10.10;99.90;;;;;;4962064;28;20122;-76
2022/04/23 00:46:03;;;;;;;44.63;39.78;;;10.10;99.90;;;;;;4963246;28;20729;-76
2022/04/23 00:48:30;;;;;;;44.90;39.30;;;10.10;99.90;;;;;;4979931;28;20420;-76
2022/04/23 00:50:59;;;;;;;46.83;40.53;;;10.10;99.90;;;;;;4947019;28;20160;-75
2022/04/23 00:53:28;;;;;;;48.55;42.33;;;10.10;99.90;;;;;;4963786;28;20047;-74
2022/04/23 00:55:56;;;;;;;44.97;40.15;;;10.10;99.90;;;;;;4944134;28;20113;-75
2022/04/23 00:58:23;;;;;;;47.35;41.17;;;10.10;99.90;;;;;;4963611;28;20097;-74
2022/04/23 01:00:50;;;;;;;45.58;40.17;;;10.10;99.90;;;;;;4962546;28;20069;-75
2022/04/23 01:03:17;;;;;;;45.75;39.10;;;10.00;99.90;;;;;;4960988;28;20061;-75
2022/04/23 01:05:44;;;;;;;47.83;39.38;;;10.00;99.90;;;;;;4943899;28;20048;-74
2022/04/23 01:08:17;;;;;;;50.38;39.80;;;10.00;99.90;;;;;;4943799;28;20291;-74
2022/04/23 01:10:44;;;;;;;45.38;39.38;;;10.00;99.90;;;;;;4962357;28;20047;-75
2022/04/23 01:13:14;;;;;;;49.58;39.95;;;10.00;99.90;;;;;;4952786;28;20084;-75
2022/04/23 01:16:02;;;;;;;45.88;40.20;;;9.90;99.90;;;;;;4979224;28;20074;-74
2022/04/23 01:18:29;;;;;;;46.03;40.17;;;10.00;99.90;;;;;;4979509;28;20162;-75
2022/04/23 01:20:57;;;;;;;47.20;39.80;;;9.90;99.90;;;;;;4962655;28;20067;-75
2022/04/23 01:23:24;;;;;;;47.35;40.15;;;10.00;99.90;;;;;;4962558;28;20451;-75
2022/04/23 01:25:52;;;;;;;46.65;39.42;;;10.00;99.90;;;;;;4965419;28;20418;-78
2022/04/23 01:28:21;;;;;;;49.08;39.75;;;10.00;99.90;;;;;;4979285;28;20125;-77
2022/04/23 01:30:49;;;;;;;47.67;41.25;;;10.00;99.90;;;;;;4961777;28;20050;-77
2022/04/23 01:33:16;;;;;;;45.90;40.92;;;9.90;99.90;;;;;;4963270;28;20189;-77
2022/04/23 01:35:43;;;;;;;50.28;40.90;;;10.00;99.90;;;;;;4946821;28;20135;-75
2022/04/23 01:38:11;;;;;;;47.38;39.72;;;9.90;99.90;;;;;;4962971;28;20588;-75
2022/04/23 01:40:38;;;;;;;48.33;40.15;;;9.90;99.90;;;;;;4955822;28;20051;-76
2022/04/23 01:43:05;;;;;;;47.97;41.78;;;9.90;99.90;;;;;;4968088;28;20786;-75
2022/04/23 01:45:32;;;;;;;54.72;44.67;;;9.90;99.90;;;;;;4959971;28;20043;-75
2022/04/23 01:47:58;;;;;;;51.53;41.78;;;9.90;99.90;;;;;;4980272;28;20501;-77
2022/04/23 01:50:25;;;;;;;59.17;45.15;;;9.90;99.90;;;;;;4963323;28;20089;-75
2022/04/23 01:52:52;;;;;;;54.88;46.20;;;9.90;99.90;;;;;;4947633;28;20114;-77
2022/04/23 01:55:19;;;;;;;52.00;42.15;;;9.90;99.90;;;;;;4954281;28;20403;-78
2022/04/23 01:57:45;;;;;;;56.28;46.47;;;9.90;99.90;;;;;;4963106;28;20039;-75
2022/04/23 02:00:14;;;;;;;53.80;46.40;;;9.90;99.90;;;;;;4943770;28;20510;-74
2022/04/23 02:02:41;;;;;;;56.10;44.63;;;9.90;99.90;;;;;;4941680;28;20050;-74
2022/04/23 02:05:09;;;;;;;49.88;41.90;;;9.80;99.90;;;;;;4943918;28;20051;-74
2022/04/23 02:07:43;;;;;;;58.05;46.05;;;9.80;99.90;;;;;;4947236;28;20050;-74
2022/04/23 02:10:15;;;;;;;58.58;47.03;;;9.80;99.90;;;;;;4960248;28;20046;-76
2022/04/23 02:12:45;;;;;;;61.50;46.42;;;9.80;99.90;;;;;;4964889;28;20479;-75
2022/04/23 02:15:15;;;;;;;54.10;44.47;;;9.80;99.90;;;;;;4947127;28;20048;-75
2022/04/23 02:17:44;;;;;;;61.10;46.80;;;9.80;99.90;;;;;;4948391;28;20083;-76
2022/04/23 02:20:12;;;;;;;57.55;47.15;;;9.80;99.90;;;;;;4982647;28;20579;-75
2022/04/23 02:22:40;;;;;;;53.67;45.38;;;9.80;99.90;;;;;;4966446;28;20047;-75
2022/04/23 02:25:07;;;;;;;61.28;47.53;;;9.80;99.90;;;;;;4952589;28;20109;-75
2022/04/23 02:27:44;;;;;;;60.20;47.40;;;9.70;99.90;;;;;;4950438;28;20051;-75
2022/04/23 02:30:13;;;;;;;58.42;47.38;;;9.70;99.90;;;;;;4949724;28;20117;-75
2022/04/23 02:32:44;;;;;;;59.05;47.20;;;9.70;99.90;;;;;;4965965;28;20229;-79
2022/04/23 02:35:12;;;;;;;57.40;46.97;;;9.70;99.90;;;;;;4949250;28;20101;-75
2022/04/23 02:37:40;;;;;;;60.88;48.10;;;9.70;99.90;;;;;;4966911;28;20105;-75
2022/04/23 02:40:08;;;;;;;57.58;45.13;;;9.80;99.90;;;;;;4963376;28;20046;-75
2022/04/23 02:42:37;;;;;;;58.75;46.42;;;9.80;99.90;;;;;;4964012;28;20161;-74
2022/04/23 02:45:16;;;;;;;59.67;46.67;;;9.80;99.90;;;;;;4967661;28;20580;-76
2022/04/23 02:47:51;;;;;;;61.00;45.53;;;9.70;99.90;;;;;;4970124;28;20059;-75
2022/04/23 02:50:25;;;;;;;;;;;9.70;99.90;;;;;;4970303;28;20051;-76
2022/04/23 02:52:53;;;;;;;61.55;43.97;;;9.70;99.90;;;;;;4986914;28;20455;-75
2022/04/23 02:55:20;;;;;;;57.50;44.90;;;9.70;99.90;;;;;;4967529;28;20039;-75
2022/04/23 02:57:48;;;;;;;55.05;42.08;;;9.70;99.90;;;;;;4972368;28;20114;-76
2022/04/23 03:00:15;;;;;;;56.40;44.88;;;9.60;99.90;;;;;;4963953;28;20185;-76
2022/04/23 03:02:44;;;;;;;57.40;46.60;;;9.70;99.90;;;;;;4961835;28;20059;-76
2022/04/23 03:05:12;;;;;;;58.17;45.65;;;9.70;99.90;;;;;;4956502;28;20554;-74
2022/04/23 03:07:39;;;;;;;58.47;46.40;;;9.60;99.90;;;;;;4956259;28;20233;-75
2022/04/23 03:10:08;;;;;;;57.90;46.05;;;9.60;99.90;;;;;;4953859;28;20050;-76
2022/04/23 03:12:38;;;;;;;52.45;42.78;;;9.70;99.90;;;;;;4978601;28;20055;-76
2022/04/23 03:15:06;;;;;;;60.58;46.95;;;9.60;99.90;;;;;;4974245;28;20083;-76
2022/04/23 03:17:33;;;;;;;59.95;45.35;;;9.60;99.90;;;;;;4971638;28;20154;-75
2022/04/23 03:20:01;;;;;;;58.92;46.20;;;9.60;99.90;;;;;;4970327;28;20097;-75
2022/04/23 03:22:27;;;;;;;58.60;46.55;;;9.50;99.90;;;;;;4969293;28;20055;-76
2022/04/23 03:24:54;;;;;;;57.90;44.60;;;9.60;99.90;;;;;;4960655;28;20039;-75
2022/04/23 03:27:21;;;;;;;58.25;44.17;;;9.50;99.90;;;;;;4967440;28;20483;-75
2022/04/23 03:29:48;;;;;;;57.70;42.70;;;9.60;99.90;;;;;;4950527;28;20063;-76
2022/04/23 03:32:15;;;;;;;62.45;45.30;;;9.50;99.90;;;;;;4966498;28;20051;-76
2022/04/23 03:34:42;;;;;;;59.92;44.72;;;9.50;99.90;;;;;;4967522;28;20051;-76
2022/04/23 03:37:09;;;;;;;58.50;44.40;;;9.50;99.90;;;;;;4968096;28;20057;-74
2022/04/23 03:39:36;;;;;;;59.20;43.85;;;9.50;99.90;;;;;;4952013;28;20051;-75
2022/04/23 03:42:03;;;;;;;58.35;43.90;;;9.50;99.90;;;;;;4970290;28;20300;-78
2022/04/23 03:44:31;;;;;;;61.22;44.88;;;9.50;99.90;;;;;;4966869;28;20046;-77
2022/04/23 03:46:59;;;;;;;56.17;44.67;;;9.50;99.90;;;;;;4966819;28;20109;-77
2022/04/23 03:49:26;;;;;;;63.40;45.38;;;9.50;99.90;;;;;;4967462;28;20058;-78
2022/04/23 03:51:53;;;;;;;56.40;44.92;;;9.50;99.90;;;;;;4964963;28;20054;-78
2022/04/23 03:54:20;;;;;;;55.33;42.95;;;9.40;99.90;;;;;;4965859;28;20105;-77
2022/04/23 03:56:47;;;;;;;59.10;45.08;;;9.50;99.90;;;;;;4971718;28;20047;-78
2022/04/23 03:59:15;;;;;;;62.67;44.78;;;9.50;99.90;;;;;;4950807;28;20051;-77
2022/04/23 04:01:42;;;;;;;58.35;44.22;;;9.40;99.90;;;;;;4965145;28;20051;-77
2022/04/23 04:04:09;;;;;;;60.70;44.97;;;9.40;99.90;;;;;;4965082;28;20077;-78
2022/04/23 04:06:35;;;;;;;58.08;43.85;;;9.30;99.90;;;;;;4964834;28;20054;-78
2022/04/23 04:09:02;;;;;;;55.95;44.22;;;9.30;99.90;;;;;;4966358;28;20443;-78
2022/04/23 04:12:01;;;;;;;59.50;45.28;;;9.30;99.90;;;;;;4954869;28;20661;-75
2022/04/23 04:14:16;;;;;;;60.95;45.17;;;9.30;99.90;;;;;;4964313;28;20062;-76
2022/04/23 04:16:43;;;;;;;59.75;45.17;;;9.30;99.90;;;;;;4963784;28;20105;-75
2022/04/23 04:19:10;;;;;;;60.25;44.53;;;9.30;99.90;;;;;;4981162;28;20530;-78
2022/04/23 04:21:38;;;;;;;58.30;43.58;;;9.30;99.90;;;;;;4980977;28;20043;-78
2022/04/23 04:24:05;;;;;;;58.75;44.45;;;9.20;99.90;;;;;;4933503;28;20101;-77
2022/04/23 04:26:32;;;;;;;56.85;42.60;;;9.20;99.90;;;;;;4979930;28;20573;-75
2022/04/23 04:28:59;;;;;;;58.95;43.70;;;9.20;99.90;;;;;;4962789;28;20055;-75
2022/04/23 04:34:11;;;;;;;;;;;9.20;99.90;;;;;;4963601;28;20130;-76
2022/04/23 04:36:38;;;;;;;57.33;42.28;;;9.20;99.90;;;;;;4945402;28;19926;-75
2022/04/23 04:39:05;;;;;;;55.10;39.10;;;9.20;99.90;;;;;;4947111;28;20605;-75
2022/04/23 04:41:33;;;;;;;56.78;42.38;;;9.20;99.90;;;;;;4953411;28;20683;-75
2022/04/23 04:43:59;;;;;;;58.95;41.97;;;9.20;99.90;;;;;;4966680;28;20058;-75
2022/04/23 04:46:26;;;;;;;56.88;40.75;;;9.10;99.90;;;;;;4961718;28;20199;-75
2022/04/23 04:48:53;;;;;;;57.33;41.17;;;9.20;99.90;;;;;;4962340;28;20117;-75
2022/04/23 04:51:20;;;;;;;57.15;40.22;;;9.20;99.90;;;;;;4961935;28;20047;-75
2022/04/23 04:53:46;;;;;;;58.65;41.17;;;9.30;99.90;;;;;;4978667;28;20046;-75
2022/04/23 04:56:13;;;;;;;51.55;40.65;;;9.30;99.90;;;;;;4970254;28;20443;-78
2022/04/23 04:58:43;;;;;;;58.30;43.15;;;9.20;99.90;;;;;;4962544;28;20055;-77
2022/04/23 05:01:10;;;;;;;54.97;42.03;;;9.20;99.90;;;;;;4978666;28;20039;-78
2022/04/23 05:03:39;;;;;;;53.20;40.15;;;9.20;99.90;;;;;;4953460;28;20052;-75
2022/04/23 05:06:10;;;;;;;57.72;41.55;;;9.20;99.90;;;;;;4942614;28;20256;-75
2022/04/23 05:08:38;;;;;;;56.30;41.58;;;9.20;99.90;;;;;;4958932;28;20110;-75
2022/04/23 05:11:05;;;;;;;53.50;40.22;;;9.20;99.90;;;;;;4957640;28;20067;-75
2022/04/23 05:13:33;;;;;;;50.15;37.70;;;9.10;99.90;;;;;;4969207;28;20125;-76
2022/04/23 05:16:00;;;;;;;52.65;40.40;;;9.20;99.90;;;;;;4963129;28;20050;-75
2022/04/23 05:18:27;;;;;;;54.88;38.63;;;9.20;99.90;;;;;;4962309;28;20297;-77
2022/04/23 05:20:54;;;;;;;53.53;40.05;;;9.30;99.90;;;;;;4962868;28;20132;-77
2022/04/23 05:23:20;;;;;;;51.45;40.08;;;9.20;99.90;;;;;;4977729;28;20660;-78
2022/04/23 05:25:47;;;;;;;55.65;40.88;;;9.20;99.90;;;;;;4955810;28;20133;-77
2022/04/23 05:28:14;;;;;;;52.70;39.85;;;9.30;99.90;;;;;;4964255;28;20050;-77
2022/04/23 05:30:41;;;;;;;49.35;38.42;;;9.30;99.90;;;;;;4965969;28;20062;-78
2022/04/23 05:33:07;;;;;;;50.83;39.13;;;9.50;99.90;;;;;;4961621;28;20051;-77
2022/04/23 05:35:34;;;;;;;48.70;39.63;;;9.40;99.90;;;;;;4946675;28;20054;-77
2022/04/23 05:38:01;;;;;;;55.70;41.20;;;9.50;99.90;;;;;;4965289;28;20069;-77
2022/04/23 05:40:28;;;;;;;52.67;40.83;;;9.50;99.90;;;;;;4963235;28;20586;-77
2022/04/23 05:42:58;;;;;;;50.10;39.60;;;9.50;99.90;;;;;;4976025;28;20051;-77
2022/04/23 05:45:25;;;;;;;52.42;39.30;;;9.60;99.90;;;;;;4946208;28;20039;-75
2022/04/23 05:47:52;;;;;;;49.60;39.13;;;9.60;99.90;;;;;;4961593;28;20070;-75
2022/04/23 05:50:22;;;;;;;52.22;38.97;;;9.50;99.90;;;;;;4961554;28;20069;-75
2022/04/23 05:52:49;;;;;;;49.10;37.78;;;9.40;99.90;;;;;;4978372;28;20179;-75
2022/04/23 05:55:16;;;;;;;51.92;39.65;;;9.40;99.90;;;;;;4952341;28;20552;-75
2022/04/23 05:57:43;;;;;;;52.75;38.80;;;9.40;99.90;;;;;;4961438;28;20125;-75
2022/04/23 06:00:11;;;;;;;49.42;37.92;;;9.30;99.90;;;;;;4961975;28;20401;-75
2022/04/23 06:02:38;;;;;;;51.65;37.97;;;9.20;99.90;;;;;;4968646;28;20045;-75
2022/04/23 06:05:06;;;;;;;47.47;37.70;;;9.20;99.90;;;;;;4961461;28;20077;-75
2022/04/23 06:07:34;;;;;;;49.42;37.75;;;9.10;99.90;;;;;;4961842;28;20047;-75
2022/04/23 06:10:02;;;;;;;49.20;36.88;;;9.10;99.90;;;;;;4958590;28;20063;-75
2022/04/23 06:12:29;;;;;;;47.08;37.17;;;9.10;99.90;;;;;;4973327;28;20101;-75
2022/04/23 06:14:56;;;;;;;46.92;37.47;;;9.20;99.90;;;;;;4962808;28;20245;-75
2022/04/23 06:17:25;;;;;;;44.97;36.13;;;9.30;99.90;;;;;;4962449;28;20047;-75
2022/04/23 06:19:52;;;;;;;47.38;38.35;;;9.40;99.90;;;;;;4962237;28;20047;-75
2022/04/23 06:22:22;;;;;;;44.97;37.10;;;9.30;99.90;;;;;;4964093;28;20047;-75
2022/04/23 06:24:50;;;;;;;48.22;38.80;;;9.50;99.90;;;;;;4958921;28;20340;-75
2022/04/23 06:27:17;;;;;;;48.05;38.05;;;9.60;99.90;;;;;;4961796;28;20047;-75
2022/04/23 06:29:44;;;;;;;46.10;36.42;;;9.60;99.90;;;;;;4962686;28;20055;-75
2022/04/23 06:32:11;;;;;;;45.10;36.75;;;9.60;99.90;;;;;;4961587;28;20072;-76
2022/04/23 06:34:38;;;;;;;47.28;37.80;;;9.60;99.90;;;;;;4945531;28;20047;-75
2022/04/23 06:37:06;;;;;;;45.25;36.90;;;9.60;99.90;;;;;;4962079;28;20101;-75
2022/04/23 06:39:33;;;;;;;46.25;36.83;;;9.50;99.90;;;;;;4945558;28;20507;-75
2022/04/23 06:42:00;;;;;;;46.88;36.42;;;9.50;99.90;;;;;;4968401;28;20046;-75
2022/04/23 06:44:28;;;;;;;40.97;36.47;;;9.60;99.90;;;;;;4942581;28;20055;-75
2022/04/23 06:46:54;;;;;;;42.58;35.90;;;9.60;99.90;;;;;;4958221;28;20182;-78
2022/04/23 06:49:23;;;;;;;37.55;33.58;;;9.70;99.90;;;;;;4961862;28;20054;-78
2022/04/23 06:51:50;;;;;;;37.85;33.67;;;9.60;99.90;;;;;;4961617;28;20055;-75
2022/04/23 06:54:17;;;;;;;36.53;32.63;;;9.60;99.90;;;;;;4961760;28;20109;-75
2022/04/23 06:56:44;;;;;;;39.25;34.65;;;9.60;99.90;;;;;;4961898;28;20272;-78
2022/04/23 06:59:11;;;;;;;40.45;35.65;;;9.80;99.90;;;;;;4978978;28;20067;-77
2022/04/23 07:01:40;;;;;;;37.67;33.63;;;9.70;99.90;;;;;;4949330;28;20050;-77
2022/04/23 07:04:08;;;;;;;38.92;34.22;;;9.60;99.90;;;;;;4964367;28;20036;-77
2022/04/23 07:06:35;;;;;;;37.00;33.33;;;9.70;99.90;;;;;;4965723;28;20089;-74
2022/04/23 07:09:03;;;;;;;35.95;32.17;;;9.60;99.90;;;;;;4981574;28;20218;-75
2022/04/23 07:11:30;;;;;;;36.72;33.03;;;9.60;99.90;;;;;;4955885;28;20048;-75
2022/04/23 07:13:57;;;;;;;36.90;32.95;;;9.60;99.90;;;;;;4968665;28;20371;-75
2022/04/23 07:16:23;;;;;;;36.33;32.70;;;9.80;99.90;;;;;;4965313;28;20078;-75
2022/04/23 07:18:53;;;;;;;34.97;31.60;;;10.20;99.90;;;;;;4949124;28;20458;-75
2022/04/23 07:21:21;;;;;;;38.20;31.95;;;10.20;99.90;;;;;;4967198;28;20047;-77
2022/04/23 07:24:03;;;;;;;36.83;33.03;;;10.20;99.90;;;;;;4965401;28;20105;-77
2022/04/23 07:26:31;;;;;;;37.90;32.90;;;10.30;99.90;;;;;;4971238;28;20425;-77
2022/04/23 07:28:58;;;;;;;34.95;31.58;;;10.50;99.90;;;;;;4966605;28;20106;-78
2022/04/23 07:31:25;;;;;;;35.90;32.28;;;10.60;99.90;;;;;;4967567;28;20843;-78
2022/04/23 07:39:23;;;;;;;37.45;34.13;;;10.70;99.90;;;;;;4949457;28;20127;-75
2022/04/23 07:41:50;;;;;;;35.70;32.38;;;10.70;99.90;;;;;;4971022;28;20136;-76
2022/04/23 07:44:16;;;;;;;37.97;34.22;;;11.10;99.90;;;;;;4964053;28;20198;-75
2022/04/23 07:46:43;;;;;;;37.33;33.85;;;11.20;99.90;;;;;;4980629;28;20189;-75
2022/04/23 07:49:10;;;;;;;38.15;34.63;;;11.20;99.90;;;;;;4981296;28;20057;-75
2022/04/23 07:51:37;;;;;;;37.78;34.60;;;11.50;99.90;;;;;;4944650;28;20547;-75
2022/04/23 07:54:03;;;;;;;38.05;34.67;;;11.30;99.90;;;;;;4947600;28;20640;-75
2022/04/23 07:56:30;;;;;;;38.67;35.42;;;11.30;99.90;;;;;;4955314;28;20117;-75
2022/04/23 07:58:57;;;;;;;37.35;34.22;;;11.50;99.90;;;;;;4979102;28;20055;-77
2022/04/23 08:01:24;;;;;;;37.33;34.28;;;11.60;99.90;;;;;;4964797;28;20704;-76
2022/04/23 08:03:50;;;;;;;39.92;36.42;;;11.80;99.90;;;;;;4955480;28;20121;-75
2022/04/23 08:06:17;;;;;;;38.72;35.38;;;11.70;99.90;;;;;;4964366;28;20106;-75
2022/04/23 08:08:44;;;;;;;38.78;35.58;;;12.00;99.90;;;;;;4964314;28;20070;-78
2022/04/23 08:11:11;;;;;;;42.17;38.28;;;12.00;99.90;;;;;;4973953;28;20082;-75
2022/04/23 08:13:37;;;;;;;42.97;39.10;;;12.40;99.90;;;;;;4965974;28;20054;-75
2022/04/23 08:16:05;;;;;;;43.65;40.05;;;12.00;99.90;;;;;;4947996;28;20161;-76
2022/04/23 08:18:32;;;;;;;41.40;37.63;;;11.90;99.90;;;;;;4964169;28;20076;-78
2022/04/23 08:20:58;;;;;;;37.80;34.50;;;11.80;99.90;;;;;;4964110;28;20058;-76
2022/04/23 08:23:25;;;;;;;40.08;36.83;;;12.10;99.90;;;;;;4963966;28;20055;-78
2022/04/23 08:25:55;;;;;;;39.15;35.97;;;12.00;99.90;;;;;;4942113;28;20047;-77
2022/04/23 08:31:08;;;;;;;40.70;37.25;;;12.30;99.90;;;;;;4965330;28;20689;-78
2022/04/23 08:36:20;;;;;;;39.60;36.50;;;12.40;99.90;;;;;;4946279;28;20047;-75
2022/04/23 08:38:47;;;;;;;39.35;36.25;;;12.70;99.90;;;;;;4945090;28;20719;-75
2022/04/23 08:41:13;;;;;;;42.13;38.53;;;12.50;99.90;;;;;;4968753;28;20105;-75
2022/04/23 08:43:41;;;;;;;44.83;41.05;;;12.80;99.90;;;;;;4960849;28;20106;-75
2022/04/23 08:46:09;;;;;;;42.40;39.28;;;12.80;99.90;;;;;;4963234;28;20422;-75
2022/04/23 08:48:42;;;;;;;41.97;38.78;;;13.20;99.90;;;;;;4963358;28;20141;-75
2022/04/23 08:51:13;;;;;;;42.72;39.33;;;13.10;99.90;;;;;;4959652;28;20496;-77
2022/04/23 08:53:41;;;;;;;42.28;39.05;;;12.80;99.90;;;;;;4991381;22;20113;-68
2022/04/23 08:56:09;;;;;;;40.20;37.13;;;12.90;99.90;;;;;;4973016;28;20342;-64
2022/04/23 08:58:39;;;;;;;43.20;40.05;;;13.20;99.90;;;;;;4954947;28;20055;-68
2022/04/23 09:01:06;;;;;;;44.10;40.50;;;12.80;99.90;;;;;;4953331;28;20047;-66
2022/04/23 09:03:33;;;;;;;42.60;39.28;;;12.90;99.90;;;;;;4962427;28;20047;-67
2022/04/23 09:06:00;;;;;;;41.88;38.78;;;13.00;99.90;;;;;;4955391;28;20069;-70
2022/04/23 09:08:29;;;;;;;39.92;36.90;;;13.30;99.90;;;;;;4955591;28;20417;-66
2022/04/23 09:10:56;;;;;;;39.92;36.78;;;13.60;99.90;;;;;;4967160;28;20050;-67
2022/04/23 09:13:32;;;;;;;41.92;38.58;;;13.40;99.90;;;;;;4973543;28;20136;-67
2022/04/23 09:24:18;;;;;;;;;;;13.00;99.90;;;;;;4968723;28;21040;-69
2022/04/23 09:27:06;;;;;;;41.60;38.40;;;13.20;99.90;;;;;;4955918;28;19929;-68
2022/04/23 09:29:33;;;;;;;42.25;38.88;;;13.10;99.90;;;;;;4973405;28;20078;-66
2022/04/23 09:32:14;;;;;;;41.25;37.50;;;13.20;99.90;;;;;;4968028;28;20089;-68
2022/04/23 09:34:41;;;;;;;37.65;34.85;;;13.30;99.90;;;;;;4969262;28;20142;-67
2022/04/23 09:37:11;;;;;;;38.13;35.03;;;13.50;99.90;;;;;;4972290;28;20570;-67
2022/04/23 09:39:40;;;;;;;37.85;35.08;;;13.20;99.90;;;;;;4973231;28;20050;-68
2022/04/23 09:42:15;;;;;;;39.45;36.63;;;13.80;99.90;;;;;;4976318;28;20133;-68
2022/04/23 09:44:43;;;;;;;37.70;34.92;;;13.40;99.90;;;;;;4978580;28;20383;-68
2022/04/23 09:47:10;;;;;;;39.88;36.75;;;13.50;99.90;;;;;;4972903;28;20061;-67
2022/04/23 09:49:39;;;;;;;40.72;37.38;;;13.70;99.90;;;;;;4975257;28;20093;-68
2022/04/23 09:52:08;;;;;;;38.58;35.67;;;13.70;99.90;;;;;;4985685;28;20280;-68
2022/04/23 09:54:37;;;;;;;40.65;37.60;;;13.90;99.90;;;;;;4966629;28;20078;-69
2022/04/23 09:57:04;;;;;;;40.15;36.58;;;14.20;99.90;;;;;;4960849;28;20678;-69
2022/04/23 09:59:31;;;;;;;39.95;36.85;;;14.20;99.90;;;;;;4955396;28;20086;-67
2022/04/23 10:01:58;;;;;;;41.15;37.70;;;14.00;99.90;;;;;;4963451;28;20202;-68
2022/04/23 10:04:27;;;;;;;37.30;34.70;;;14.00;99.90;;;;;;4966510;28;20343;-69
2022/04/23 10:06:54;;;;;;;40.53;37.35;;;13.90;99.90;;;;;;4972334;28;20053;-70
2022/04/23 10:09:27;;;;;;;39.63;36.78;;;13.30;99.90;;;;;;4971621;28;20054;-68
2022/04/23 10:12:18;;;;;;;39.83;37.03;;;13.70;99.90;;;;;;4966609;28;20057;-69
2022/04/23 10:15:03;;;;;;;39.25;36.25;;;14.10;99.90;;;;;;4973363;28;20050;-69
2022/04/23 10:17:31;;;;;;;;;;;14.10;99.90;;;;;;4975935;28;20128;-69
2022/04/23 10:20:00;;;;;;;38.83;36.03;;;14.00;99.90;;;;;;4974714;28;20512;-68
2022/04/23 10:22:58;;;;;;;38.40;35.70;;;14.40;99.90;;;;;;4973496;28;20134;-67
2022/04/23 10:25:33;;;;;;;42.85;39.60;;;14.50;99.90;;;;;;4951126;28;20055;-67
2022/04/23 10:28:00;;;;;;;40.53;37.72;;;14.60;99.90;;;;;;4974590;28;20122;-69
2022/04/23 10:30:28;;;;;;;40.70;38.00;;;14.80;99.90;;;;;;4957447;28;20121;-68
2022/04/23 10:32:55;;;;;;;39.88;37.08;;;14.90;99.90;;;;;;4973026;28;20117;-68
2022/04/23 10:35:21;;;;;;;40.47;37.67;;;15.00;99.90;;;;;;4976052;28;20486;-69
2022/04/23 10:37:54;;;;;;;40.22;37.40;;;14.80;99.90;;;;;;4979416;28;20401;-69
2022/04/23 10:40:22;;;;;;;38.50;35.88;;;15.10;99.90;;;;;;4969275;28;20892;-66
2022/04/23 10:43:04;;;;;;;40.42;37.55;;;15.40;99.90;;;;;;4957717;28;20445;-66
2022/04/23 10:45:35;;;;;;;38.60;35.95;;;15.20;99.90;;;;;;4958981;28;20054;-67
2022/04/23 10:48:23;;;;;;;37.10;34.70;;;15.00;99.90;;;;;;4979071;28;20596;-67
2022/04/23 10:51:15;;;;;;;38.58;35.85;;;15.10;99.90;;;;;;4959420;28;20122;-67
2022/04/23 10:53:42;;;;;;;36.80;34.42;;;15.20;99.90;;;;;;4956429;28;20125;-69
2022/04/23 10:56:15;;;;;;;38.10;35.70;;;14.90;99.90;;;;;;4960519;28;20079;-69
2022/04/23 10:58:42;;;;;;;37.42;35.08;;;14.70;99.90;;;;;;4961397;28;20042;-68
2022/04/23 11:01:23;;;;;;;37.33;34.92;;;14.70;99.90;;;;;;4965138;28;20046;-67
2022/04/23 11:03:59;;;;;;;36.70;34.33;;;15.00;99.90;;;;;;4960619;28;20062;-66
2022/04/23 11:12:18;;;;;;;38.15;35.65;;;15.20;99.90;;;;;;4975726;28;20110;-65
2022/04/23 11:14:47;;;;;;;37.25;34.95;;;15.30;99.90;;;;;;4976228;28;20062;-66
2022/04/23 11:17:16;;;;;;;36.47;34.15;;;15.20;99.90;;;;;;4990569;28;20054;-68
2022/04/23 11:19:45;;;;;;;37.60;35.20;;;15.10;99.90;;;;;;4976470;28;20054;-67
2022/04/23 11:22:13;;;;;;;38.90;36.25;;;15.20;99.90;;;;;;4978422;28;20089;-67
2022/04/23 11:24:41;;;;;;;37.10;34.70;;;15.50;99.90;;;;;;4964553;28;20054;-67
2022/04/23 11:27:08;;;;;;;36.80;34.42;;;15.60;99.90;;;;;;4959006;28;20061;-68
2022/04/23 11:29:35;;;;;;;37.08;34.58;;;15.30;99.90;;;;;;4977230;28;20058;-66
2022/04/23 11:32:02;;;;;;;35.85;33.53;;;15.10;99.90;;;;;;4964206;28;20105;-68
2022/04/23 11:34:29;;;;;;;37.15;34.75;;;15.50;99.90;;;;;;4955731;28;20073;-68
2022/04/23 11:36:56;;;;;;;34.70;32.50;;;15.60;99.90;;;;;;4958789;28;20430;-68
2022/04/23 11:39:30;;;;;;;35.42;33.22;;;15.80;99.90;;;;;;4975284;28;20339;-65
2022/04/23 11:41:58;;;;;;;32.42;30.42;;;15.70;99.90;;;;;;4959421;28;20521;-68
2022/04/23 11:47:15;;;;;;;34.42;32.30;;;15.70;99.90;;;;;;4956087;28;20047;-68
2022/04/23 11:49:41;;;;;;;34.13;32.03;;;15.80;99.90;;;;;;4963573;28;20307;-67
2022/04/23 11:52:11;;;;;;;34.17;31.95;;;16.00;99.90;;;;;;4976123;28;20399;-69
2022/04/23 11:54:40;;;;;;;34.00;31.90;;;15.60;99.90;;;;;;4966969;28;20496;-68
2022/04/23 11:57:12;;;;;;;31.50;29.80;;;15.80;99.90;;;;;;4955486;28;20050;-68
2022/04/23 11:59:44;;;;;;;35.20;33.05;;;15.80;99.90;;;;;;4971904;28;20388;-68
2022/04/23 12:02:28;;;;;;;32.97;31.08;;;15.70;99.90;;;;;;4961438;28;20571;-68
2022/04/23 12:04:58;;;;;;;35.67;33.42;;;15.80;99.90;;;;;;4954940;28;20070;-69
2022/04/23 12:07:26;;;;;;;34.67;32.65;;;15.70;99.90;;;;;;4954883;28;20053;-67
2022/04/23 12:09:54;;;;;;;34.15;32.17;;;15.50;99.90;;;;;;4967068;28;20517;-69
2022/04/23 12:12:27;;;;;;;33.13;31.20;;;15.70;99.90;;;;;;4968553;28;20084;-66
2022/04/23 12:14:59;;;;;;;33.60;31.42;;;15.60;99.90;;;;;;4955949;28;20058;-69
2022/04/23 12:17:48;;;;;;;34.13;32.13;;;15.60;99.90;;;;;;4957414;28;20555;-67
2022/04/23 12:20:23;;;;;;;32.17;30.27;;;16.00;99.90;;;;;;4968506;28;20054;-66
2022/04/23 12:23:03;;;;;;;31.92;29.98;;;15.80;99.90;;;;;;4972069;28;20158;-68
2022/04/23 12:25:31;;;;;;;32.30;30.40;;;15.80;99.90;;;;;;4964059;28;20097;-68
2022/04/23 12:42:14;;;;;;;31.95;30.15;;;16.10;99.90;;;;;;4951816;28;20313;-68
2022/04/23 12:44:46;;;;;;;32.60;30.80;;;16.00;99.90;;;;;;4952206;28;20101;-68
2022/04/23 12:47:17;;;;;;;32.33;30.63;;;16.10;99.90;;;;;;4951844;28;20143;-69
2022/04/23 12:50:00;;;;;;;33.53;31.33;;;16.00;99.90;;;;;;4962575;28;20691;-68
2022/04/23 12:52:50;;;;;;;33.65;31.75;;;15.80;99.90;;;;;;4973563;28;20093;-69
2022/04/23 12:55:36;;;;;;;32.90;31.00;;;16.10;99.90;;;;;;4967788;28;20133;-68
2022/04/23 12:58:03;;;;;;;32.67;30.77;;;16.30;99.90;;;;;;4970244;28;20406;-67
2022/04/23 13:00:35;;;;;;;33.50;31.70;;;16.70;99.90;;;;;;4974025;28;20519;-68
2022/04/23 13:03:28;;;;;;;33.03;31.13;;;16.90;99.90;;;;;;4971802;28;20050;-67
2022/04/23 13:05:56;;;;;;;33.63;31.50;;;16.70;99.30;;;;;;4973165;28;20050;-66
2022/04/23 13:11:24;;;;;;;33.58;31.65;;;16.70;99.90;;;;;;4967932;28;20172;-66
2022/04/23 13:13:56;;;;;;;32.90;31.02;;;16.70;99.90;;;;;;4972054;28;20090;-66
2022/04/23 13:16:25;;;;;;;32.97;31.20;;;16.70;99.90;;;;;;4972120;28;20073;-68
2022/04/23 13:18:58;;;;;;;32.58;30.70;;;16.90;99.90;;;;;;4968577;28;20141;-67
2022/04/23 13:21:29;;;;;;;31.70;30.00;;;16.80;99.00;;;;;;4970954;28;20096;-68
2022/04/23 13:23:57;;;;;;;32.42;30.63;;;16.60;98.80;;;;;;4968123;28;20069;-67
2022/04/23 13:26:29;;;;;;;32.33;30.60;;;16.70;98.70;;;;;;4959659;28;20042;-66
2022/04/23 13:28:57;;;;;;;32.47;30.67;;;16.70;96.80;;;;;;4970503;28;20141;-66
2022/04/23 13:31:24;;;;;;;32.25;30.45;;;16.60;97.40;;;;;;4970574;28;20042;-67